METAR Data
IDs: Format: Raw Decoded Include TAF

Data at: 1049 UTC 23 Jun 2021

PAGK 230953Z AUTO 13004KT 10SM CLR 08/03 A2981 RMK AO2 SLP097 T00830033 TSNO